New Salem, MA (01355)

12:51 AM EDT on April 01, 2015 (GMT -0400)
North main St | | Change Station
CLOSE
Current Station
Personal Weather Station
Location: New Salem, MA
Elevation: 863 ft
Nearby Weather Stations

Elev 863 ft 42.53 °N, 72.34 °W | Updated 10 seconds ago

Clear
Clear
28.4 °F
Feels Like 28 °F
N
0.0
Wind Variable Wind from North
Gusts 3.8 mph

Today
High -- | Low -- °F
--% Chance of Precip.
Yesterday
High -- | Low -- °F
Precip. -- in
6:32 AM 7:15 PM
Waxing Gibbous, 90% visible
Pressure 29.81 in
Visibility 10.0 miles
Clouds Clear
Windchill 28 °F
Dew Point 17 °F
Humidity 63%
Rainfall 0.00 in
Snow Depth Not available.
UV 0 out of 12
Pollen 6.40 out of 12
Air Quality Not available.
Flu Activity Not available.
METAR KORE 010352Z AUTO 00000KT 10SM CLR M03/M06 A2979 RMK AO2 SLP093 T10281056

More Conditions Fewer Conditions

Pressure 29.81 in
Visibility 10.0 miles
Clouds Clear
Windchill 28 °F
Dew Point 17 °F
Humidity 63%
Rainfall 0.00 in
Snow Depth Not available.
UV 0 out of 12
Pollen 6.40 out of 12
Air Quality Not available.
Flu Activity Not available.
METAR KORE 010352Z AUTO 00000KT 10SM CLR M03/M06 A2979 RMK AO2 SLP093 T10281056

More Conditions Fewer Conditions

10-Day Weather Forecast

Almanac

Astronomy

Apr. 01, 2015 Rise Set
Actual Time
Civil Twilight
Nautical Twilight
Astronomical Twilight
Moon
Length of Visible Light
Length of Day
Tomorrow will be .
, % of the Moon is Illuminated

Today's Extremes

State Highs State Lows

Community

WunderPhotos

Upload Photos

1,809,919 photos uploaded!

WunderBlogs® & News

Nearby

Air Quality

  Air Quality AQ Index Pollutant
Not available.

Snow Depth

Station Depth Elevation

Earthquake Activity

City Distance Mag. Time & Date
Minimum magnitude displayed is 2.5.

Coastal Water Temperatures

Place Temperature

Stations

Nearby Weather Stations

Station Location Temp. Windchill Dew Point Humidity Wind Precip. Elev Updated Type